sensor_id;sensor_type;location;lat;lon;timestamp;pressure;altitude;pressure_sealevel;temperature;humidity
17593;BME280;8915;51.760;14.300;2023-02-10T00:00:44;102493.25;;;-6.40;100.00
17593;BME280;8915;51.760;14.300;2023-02-10T00:03:11;102497.34;;;-6.31;100.00
17593;BME280;8915;51.760;14.300;2023-02-10T00:05:38;102490.38;;;-6.33;100.00
17593;BME280;8915;51.760;14.300;2023-02-10T00:08:05;102488.41;;;-6.25;100.00
17593;BME280;8915;51.760;14.300;2023-02-10T00:10:32;102485.88;;;-6.25;100.00
17593;BME280;8915;51.760;14.300;2023-02-10T00:12:58;102476.59;;;-6.25;100.00
17593;BME280;8915;51.760;14.300;2023-02-10T00:15:24;102485.31;;;-6.21;100.00
17593;BME280;8915;51.760;14.300;2023-02-10T00:17:51;102484.00;;;-6.16;100.00
17593;BME280;8915;51.760;14.300;2023-02-10T00:20:17;102476.59;;;-6.13;100.00
17593;BME280;8915;51.760;14.300;2023-02-10T00:22:44;102475.72;;;-6.14;100.00
17593;BME280;8915;51.760;14.300;2023-02-10T00:25:11;102477.47;;;-6.13;100.00
17593;BME280;8915;51.760;14.300;2023-02-10T00:27:38;102470.19;;;-6.08;100.00
17593;BME280;8915;51.760;14.300;2023-02-10T00:30:05;102475.50;;;-6.05;100.00
17593;BME280;8915;51.760;14.300;2023-02-10T00:32:31;102479.56;;;-6.07;100.00
17593;BME280;8915;51.760;14.300;2023-02-10T00:34:58;102477.91;;;-6.06;100.00
17593;BME280;8915;51.760;14.300;2023-02-10T00:37:24;102481.75;;;-6.00;100.00
17593;BME280;8915;51.760;14.300;2023-02-10T00:39:51;102480.84;;;-5.88;100.00
17593;BME280;8915;51.760;14.300;2023-02-10T00:42:19;102487.25;;;-5.82;100.00
17593;BME280;8915;51.760;14.300;2023-02-10T00:44:46;102498.16;;;-5.71;100.00
17593;BME280;8915;51.760;14.300;2023-02-10T00:47:12;102501.97;;;-5.53;100.00
17593;BME280;8915;51.760;14.300;2023-02-10T00:49:38;102503.78;;;-5.38;100.00
17593;BME280;8915;51.760;14.300;2023-02-10T00:52:05;102505.53;;;-5.25;100.00
17593;BME280;8915;51.760;14.300;2023-02-10T00:54:31;102510.91;;;-5.21;100.00
17593;BME280;8915;51.760;14.300;2023-02-10T00:56:57;102508.66;;;-5.04;100.00
17593;BME280;8915;51.760;14.300;2023-02-10T00:59:25;102506.03;;;-4.92;100.00
17593;BME280;8915;51.760;14.300;2023-02-10T01:01:52;102512.41;;;-4.86;100.00
17593;BME280;8915;51.760;14.300;2023-02-10T01:04:18;102509.44;;;-4.67;100.00
17593;BME280;8915;51.760;14.300;2023-02-10T01:06:45;102514.25;;;-4.58;100.00
17593;BME280;8915;51.760;14.300;2023-02-10T01:09:11;102522.69;;;-4.46;100.00
17593;BME280;8915;51.760;14.300;2023-02-10T01:11:38;102513.19;;;-4.35;100.00
17593;BME280;8915;51.760;14.300;2023-02-10T01:14:04;102513.88;;;-4.24;100.00
17593;BME280;8915;51.760;14.300;2023-02-10T01:16:32;102517.44;;;-4.09;100.00
17593;BME280;8915;51.760;14.300;2023-02-10T01:18:59;102516.25;;;-4.01;100.00
17593;BME280;8915;51.760;14.300;2023-02-10T01:21:29;102506.53;;;-3.93;100.00
17593;BME280;8915;51.760;14.300;2023-02-10T01:23:55;102512.13;;;-3.85;100.00
17593;BME280;8915;51.760;14.300;2023-02-10T01:26:22;102494.84;;;-3.76;100.00
17593;BME280;8915;51.760;14.300;2023-02-10T01:28:48;102500.53;;;-3.67;100.00
17593;BME280;8915;51.760;14.300;2023-02-10T01:31:17;102503.81;;;-3.54;100.00
17593;BME280;8915;51.760;14.300;2023-02-10T01:33:46;102500.09;;;-3.46;100.00
17593;BME280;8915;51.760;14.300;2023-02-10T01:36:14;102494.66;;;-3.37;100.00
17593;BME280;8915;51.760;14.300;2023-02-10T01:38:42;102503.75;;;-3.28;100.00
17593;BME280;8915;51.760;14.300;2023-02-10T01:41:09;102499.88;;;-3.21;100.00
17593;BME280;8915;51.760;14.300;2023-02-10T01:43:58;102497.72;;;-3.15;100.00
17593;BME280;8915;51.760;14.300;2023-02-10T01:46:25;102499.75;;;-3.09;100.00
17593;BME280;8915;51.760;14.300;2023-02-10T01:48:55;102495.81;;;-3.04;100.00
17593;BME280;8915;51.760;14.300;2023-02-10T01:51:24;102489.22;;;-3.00;100.00
17593;BME280;8915;51.760;14.300;2023-02-10T01:53:52;102497.50;;;-2.90;100.00
17593;BME280;8915;51.760;14.300;2023-02-10T01:56:18;102498.47;;;-2.88;100.00
17593;BME280;8915;51.760;14.300;2023-02-10T01:58:45;102515.81;;;-2.82;100.00
17593;BME280;8915;51.760;14.300;2023-02-10T02:01:12;102515.13;;;-2.79;100.00
17593;BME280;8915;51.760;14.300;2023-02-10T02:03:40;102519.69;;;-2.74;100.00
17593;BME280;8915;51.760;14.300;2023-02-10T02:06:08;102519.06;;;-2.70;100.00
17593;BME280;8915;51.760;14.300;2023-02-10T02:08:35;102521.03;;;-2.65;100.00
17593;BME280;8915;51.760;14.300;2023-02-10T02:11:13;102529.66;;;-2.63;100.00
17593;BME280;8915;51.760;14.300;2023-02-10T02:13:58;102523.06;;;-2.60;100.00
17593;BME280;8915;51.760;14.300;2023-02-10T02:16:37;102535.13;;;-2.57;100.00
17593;BME280;8915;51.760;14.300;2023-02-10T02:19:17;102537.84;;;-2.54;100.00
17593;BME280;8915;51.760;14.300;2023-02-10T02:22:23;102536.97;;;-2.55;100.00
17593;BME280;8915;51.760;14.300;2023-02-10T02:25:04;102539.53;;;-2.55;100.00
17593;BME280;8915;51.760;14.300;2023-02-10T02:32:01;102534.44;;;-2.55;100.00
17593;BME280;8915;51.760;14.300;2023-02-10T02:34:35;102521.38;;;-2.59;100.00
17593;BME280;8915;51.760;14.300;2023-02-10T02:37:08;102527.13;;;-2.63;100.00
17593;BME280;8915;51.760;14.300;2023-02-10T02:39:36;102527.88;;;-2.64;100.00
17593;BME280;8915;51.760;14.300;2023-02-10T02:42:17;102528.69;;;-2.65;100.00
17593;BME280;8915;51.760;14.300;2023-02-10T02:44:46;102529.38;;;-2.68;100.00
17593;BME280;8915;51.760;14.300;2023-02-10T02:47:22;102535.28;;;-2.69;100.00
17593;BME280;8915;51.760;14.300;2023-02-10T02:53:27;102533.25;;;-2.75;100.00
17593;BME280;8915;51.760;14.300;2023-02-10T02:56:03;102524.72;;;-2.75;100.00
17593;BME280;8915;51.760;14.300;2023-02-10T02:58:42;102525.59;;;-2.75;100.00
17593;BME280;8915;51.760;14.300;2023-02-10T03:01:14;102524.63;;;-2.77;100.00
17593;BME280;8915;51.760;14.300;2023-02-10T03:03:42;102531.41;;;-2.77;100.00
17593;BME280;8915;51.760;14.300;2023-02-10T03:06:09;102535.69;;;-2.76;100.00
17593;BME280;8915;51.760;14.300;2023-02-10T03:08:38;102528.84;;;-2.77;100.00
17593;BME280;8915;51.760;14.300;2023-02-10T03:11:05;102534.94;;;-2.75;100.00
17593;BME280;8915;51.760;14.300;2023-02-10T03:13:32;102531.66;;;-2.73;100.00
17593;BME280;8915;51.760;14.300;2023-02-10T03:15:58;102527.47;;;-2.72;100.00
17593;BME280;8915;51.760;14.300;2023-02-10T03:18:25;102524.09;;;-2.71;100.00
17593;BME280;8915;51.760;14.300;2023-02-10T03:20:53;102534.41;;;-2.70;100.00
17593;BME280;8915;51.760;14.300;2023-02-10T03:23:20;102531.84;;;-2.70;100.00
17593;BME280;8915;51.760;14.300;2023-02-10T03:25:46;102534.50;;;-2.68;100.00
17593;BME280;8915;51.760;14.300;2023-02-10T03:28:13;102539.59;;;-2.68;100.00
17593;BME280;8915;51.760;14.300;2023-02-10T03:30:39;102546.47;;;-2.67;100.00
17593;BME280;8915;51.760;14.300;2023-02-10T03:33:11;102541.38;;;-2.67;100.00
17593;BME280;8915;51.760;14.300;2023-02-10T03:35:38;102534.59;;;-2.67;100.00
17593;BME280;8915;51.760;14.300;2023-02-10T03:38:06;102537.22;;;-2.65;100.00
17593;BME280;8915;51.760;14.300;2023-02-10T03:40:33;102537.22;;;-2.65;100.00
17593;BME280;8915;51.760;14.300;2023-02-10T03:42:59;102532.91;;;-2.66;100.00
17593;BME280;8915;51.760;14.300;2023-02-10T03:45:25;102534.50;;;-2.68;100.00
17593;BME280;8915;51.760;14.300;2023-02-10T03:47:52;102539.25;;;-2.74;100.00
17593;BME280;8915;51.760;14.300;2023-02-10T03:50:18;102536.22;;;-2.82;100.00
17593;BME280;8915;51.760;14.300;2023-02-10T03:52:44;102546.78;;;-2.91;100.00
17593;BME280;8915;51.760;14.300;2023-02-10T03:55:12;102542.00;;;-2.99;100.00
17593;BME280;8915;51.760;14.300;2023-02-10T03:57:42;102541.75;;;-3.04;100.00
17593;BME280;8915;51.760;14.300;2023-02-10T04:00:10;102543.03;;;-3.11;100.00
17593;BME280;8915;51.760;14.300;2023-02-10T04:02:39;102538.63;;;-3.13;100.00
17593;BME280;8915;51.760;14.300;2023-02-10T04:05:06;102543.28;;;-3.21;100.00
17593;BME280;8915;51.760;14.300;2023-02-10T04:07:33;102548.78;;;-3.28;100.00
17593;BME280;8915;51.760;14.300;2023-02-10T04:09:59;102546.91;;;-3.31;100.00
17593;BME280;8915;51.760;14.300;2023-02-10T04:12:29;102553.50;;;-3.34;100.00
17593;BME280;8915;51.760;14.300;2023-02-10T04:14:56;102553.34;;;-3.37;100.00
17593;BME280;8915;51.760;14.300;2023-02-10T04:17:22;102560.91;;;-3.39;100.00
17593;BME280;8915;51.760;14.300;2023-02-10T04:19:49;102555.59;;;-3.42;100.00
17593;BME280;8915;51.760;14.300;2023-02-10T04:22:15;102556.38;;;-3.43;100.00
17593;BME280;8915;51.760;14.300;2023-02-10T04:24:41;102565.50;;;-3.47;100.00
17593;BME280;8915;51.760;14.300;2023-02-10T04:27:08;102565.44;;;-3.48;100.00
17593;BME280;8915;51.760;14.300;2023-02-10T04:29:35;102559.53;;;-3.47;100.00
17593;BME280;8915;51.760;14.300;2023-02-10T04:32:05;102555.69;;;-3.54;100.00
17593;BME280;8915;51.760;14.300;2023-02-10T04:34:31;102564.72;;;-3.59;100.00
17593;BME280;8915;51.760;14.300;2023-02-10T04:36:58;102567.78;;;-3.65;100.00
17593;BME280;8915;51.760;14.300;2023-02-10T04:39:24;102579.34;;;-3.70;100.00
17593;BME280;8915;51.760;14.300;2023-02-10T04:41:50;102572.22;;;-3.75;100.00
17593;BME280;8915;51.760;14.300;2023-02-10T04:44:17;102583.69;;;-3.82;100.00
17593;BME280;8915;51.760;14.300;2023-02-10T04:46:45;102586.63;;;-3.89;100.00
17593;BME280;8915;51.760;14.300;2023-02-10T04:49:12;102585.34;;;-3.96;100.00
17593;BME280;8915;51.760;14.300;2023-02-10T04:51:39;102586.03;;;-3.98;100.00
17593;BME280;8915;51.760;14.300;2023-02-10T04:54:05;102581.59;;;-4.01;100.00
17593;BME280;8915;51.760;14.300;2023-02-10T04:56:31;102576.50;;;-4.01;100.00
17593;BME280;8915;51.760;14.300;2023-02-10T04:58:58;102570.25;;;-3.93;100.00
17593;BME280;8915;51.760;14.300;2023-02-10T05:01:24;102573.88;;;-3.89;100.00
17593;BME280;8915;51.760;14.300;2023-02-10T05:03:52;102573.47;;;-3.82;100.00
17593;BME280;8915;51.760;14.300;2023-02-10T05:06:18;102583.13;;;-3.78;100.00
17593;BME280;8915;51.760;14.300;2023-02-10T05:08:45;102587.72;;;-3.72;100.00
17593;BME280;8915;51.760;14.300;2023-02-10T05:11:14;102577.72;;;-3.69;100.00
17593;BME280;8915;51.760;14.300;2023-02-10T05:13:42;102581.34;;;-3.66;100.00
17593;BME280;8915;51.760;14.300;2023-02-10T05:16:10;102578.78;;;-3.66;100.00
17593;BME280;8915;51.760;14.300;2023-02-10T05:18:38;102574.47;;;-3.67;100.00
17593;BME280;8915;51.760;14.300;2023-02-10T05:21:07;102576.91;;;-3.68;100.00
17593;BME280;8915;51.760;14.300;2023-02-10T05:23:34;102583.50;;;-3.72;100.00
17593;BME280;8915;51.760;14.300;2023-02-10T05:26:00;102587.41;;;-3.77;100.00
17593;BME280;8915;51.760;14.300;2023-02-10T05:28:27;102593.97;;;-3.81;100.00
17593;BME280;8915;51.760;14.300;2023-02-10T05:30:53;102592.03;;;-3.85;100.00
17593;BME280;8915;51.760;14.300;2023-02-10T05:33:20;102594.97;;;-3.92;100.00
17593;BME280;8915;51.760;14.300;2023-02-10T05:35:46;102593.00;;;-3.96;100.00
17593;BME280;8915;51.760;14.300;2023-02-10T05:38:14;102603.69;;;-4.02;100.00
17593;BME280;8915;51.760;14.300;2023-02-10T05:40:40;102597.69;;;-4.02;100.00
17593;BME280;8915;51.760;14.300;2023-02-10T05:43:07;102607.59;;;-4.07;100.00
17593;BME280;8915;51.760;14.300;2023-02-10T05:45:35;102601.63;;;-4.07;100.00
17593;BME280;8915;51.760;14.300;2023-02-10T05:48:02;102609.94;;;-4.10;100.00
17593;BME280;8915;51.760;14.300;2023-02-10T05:50:28;102604.84;;;-4.10;100.00
17593;BME280;8915;51.760;14.300;2023-02-10T05:52:55;102613.75;;;-4.16;100.00
17593;BME280;8915;51.760;14.300;2023-02-10T05:55:23;102616.88;;;-4.21;100.00
17593;BME280;8915;51.760;14.300;2023-02-10T05:57:51;102610.78;;;-4.23;100.00
17593;BME280;8915;51.760;14.300;2023-02-10T06:00:18;102606.28;;;-4.27;100.00
17593;BME280;8915;51.760;14.300;2023-02-10T06:02:44;102616.38;;;-4.28;100.00
17593;BME280;8915;51.760;14.300;2023-02-10T06:05:10;102617.06;;;-4.31;100.00
17593;BME280;8915;51.760;14.300;2023-02-10T06:07:37;102614.69;;;-4.28;100.00
17593;BME280;8915;51.760;14.300;2023-02-10T06:10:04;102617.16;;;-4.29;100.00
17593;BME280;8915;51.760;14.300;2023-02-10T06:12:32;102611.06;;;-4.31;100.00
17593;BME280;8915;51.760;14.300;2023-02-10T06:14:58;102608.63;;;-4.30;100.00
17593;BME280;8915;51.760;14.300;2023-02-10T06:17:24;102619.41;;;-4.34;100.00
17593;BME280;8915;51.760;14.300;2023-02-10T06:19:53;102627.06;;;-4.34;100.00
17593;BME280;8915;51.760;14.300;2023-02-10T06:22:19;102623.16;;;-4.29;100.00
17593;BME280;8915;51.760;14.300;2023-02-10T06:24:45;102624.34;;;-4.24;100.00
17593;BME280;8915;51.760;14.300;2023-02-10T06:27:12;102632.63;;;-4.26;100.00
17593;BME280;8915;51.760;14.300;2023-02-10T06:29:40;102641.94;;;-4.27;100.00
17593;BME280;8915;51.760;14.300;2023-02-10T06:32:07;102638.53;;;-4.27;100.00
17593;BME280;8915;51.760;14.300;2023-02-10T06:34:33;102643.41;;;-4.30;100.00
17593;BME280;8915;51.760;14.300;2023-02-10T06:36:59;102637.72;;;-4.26;100.00
17593;BME280;8915;51.760;14.300;2023-02-10T06:39:26;102630.63;;;-4.19;100.00
17593;BME280;8915;51.760;14.300;2023-02-10T06:41:53;102639.13;;;-4.18;100.00
17593;BME280;8915;51.760;14.300;2023-02-10T06:44:19;102635.78;;;-4.17;100.00
17593;BME280;8915;51.760;14.300;2023-02-10T06:46:47;102632.25;;;-4.19;100.00
17593;BME280;8915;51.760;14.300;2023-02-10T06:49:13;102635.03;;;-4.16;100.00
17593;BME280;8915;51.760;14.300;2023-02-10T06:51:40;102626.88;;;-4.10;100.00
17593;BME280;8915;51.760;14.300;2023-02-10T06:54:06;102631.22;;;-4.09;100.00
17593;BME280;8915;51.760;14.300;2023-02-10T06:56:32;102634.75;;;-4.07;100.00
17593;BME280;8915;51.760;14.300;2023-02-10T06:58:59;102639.34;;;-4.02;100.00
17593;BME280;8915;51.760;14.300;2023-02-10T07:01:25;102643.38;;;-4.05;100.00
17593;BME280;8915;51.760;14.300;2023-02-10T07:03:53;102632.78;;;-3.98;100.00
17593;BME280;8915;51.760;14.300;2023-02-10T07:06:19;102643.09;;;-3.96;100.00
17593;BME280;8915;51.760;14.300;2023-02-10T07:08:46;102643.97;;;-3.96;100.00
17593;BME280;8915;51.760;14.300;2023-02-10T07:11:12;102645.03;;;-3.92;100.00
17593;BME280;8915;51.760;14.300;2023-02-10T07:13:38;102658.41;;;-3.83;100.00
17593;BME280;8915;51.760;14.300;2023-02-10T07:16:05;102660.69;;;-3.74;100.00
17593;BME280;8915;51.760;14.300;2023-02-10T07:18:32;102658.13;;;-3.61;100.00
17593;BME280;8915;51.760;14.300;2023-02-10T07:21:00;102660.69;;;-3.48;100.00
17593;BME280;8915;51.760;14.300;2023-02-10T07:23:26;102660.38;;;-3.39;100.00
17593;BME280;8915;51.760;14.300;2023-02-10T07:25:53;102655.25;;;-3.26;100.00
17593;BME280;8915;51.760;14.300;2023-02-10T07:28:19;102660.34;;;-3.12;100.00
17593;BME280;8915;51.760;14.300;2023-02-10T07:30:45;102668.06;;;-2.97;100.00
17593;BME280;8915;51.760;14.300;2023-02-10T07:33:12;102674.09;;;-2.82;100.00
17593;BME280;8915;51.760;14.300;2023-02-10T07:35:38;102671.44;;;-2.70;100.00
17593;BME280;8915;51.760;14.300;2023-02-10T07:38:06;102672.16;;;-2.58;100.00
17593;BME280;8915;51.760;14.300;2023-02-10T07:40:32;102687.25;;;-2.48;100.00
17593;BME280;8915;51.760;14.300;2023-02-10T07:42:59;102691.34;;;-2.36;100.00
17593;BME280;8915;51.760;14.300;2023-02-10T07:45:41;102686.84;;;-2.25;100.00
17593;BME280;8915;51.760;14.300;2023-02-10T07:48:08;102690.13;;;-2.13;100.00
17593;BME280;8915;51.760;14.300;2023-02-10T07:50:35;102689.78;;;-2.04;100.00
17593;BME280;8915;51.760;14.300;2023-02-10T07:53:02;102687.63;;;-1.98;100.00
17593;BME280;8915;51.760;14.300;2023-02-10T07:55:29;102692.09;;;-1.94;100.00
17593;BME280;8915;51.760;14.300;2023-02-10T07:57:56;102680.47;;;-1.89;100.00
17593;BME280;8915;51.760;14.300;2023-02-10T08:00:22;102684.25;;;-1.82;100.00
17593;BME280;8915;51.760;14.300;2023-02-10T08:02:49;102677.84;;;-1.76;100.00
17593;BME280;8915;51.760;14.300;2023-02-10T08:05:15;102679.03;;;-1.69;100.00
17593;BME280;8915;51.760;14.300;2023-02-10T08:07:42;102673.41;;;-1.63;100.00
17593;BME280;8915;51.760;14.300;2023-02-10T08:10:08;102681.31;;;-1.59;100.00
17593;BME280;8915;51.760;14.300;2023-02-10T08:12:36;102678.94;;;-1.56;100.00
17593;BME280;8915;51.760;14.300;2023-02-10T08:15:03;102686.63;;;-1.56;100.00
17593;BME280;8915;51.760;14.300;2023-02-10T08:17:29;102688.41;;;-1.55;100.00
17593;BME280;8915;51.760;14.300;2023-02-10T08:19:56;102682.66;;;-1.50;100.00
17593;BME280;8915;51.760;14.300;2023-02-10T08:22:22;102692.16;;;-1.48;100.00
17593;BME280;8915;51.760;14.300;2023-02-10T08:24:49;102700.03;;;-1.45;100.00
17593;BME280;8915;51.760;14.300;2023-02-10T08:27:16;102708.75;;;-1.41;100.00
17593;BME280;8915;51.760;14.300;2023-02-10T08:29:43;102708.94;;;-1.38;100.00
17593;BME280;8915;51.760;14.300;2023-02-10T08:32:10;102714.38;;;-1.32;100.00
17593;BME280;8915;51.760;14.300;2023-02-10T08:34:38;102716.50;;;-1.25;100.00
17593;BME280;8915;51.760;14.300;2023-02-10T08:37:04;102721.00;;;-1.21;100.00
17593;BME280;8915;51.760;14.300;2023-02-10T08:39:31;102721.25;;;-1.16;100.00
17593;BME280;8915;51.760;14.300;2023-02-10T08:41:57;102728.53;;;-1.07;100.00
17593;BME280;8915;51.760;14.300;2023-02-10T08:44:23;102722.81;;;-1.03;100.00
17593;BME280;8915;51.760;14.300;2023-02-10T08:46:51;102723.84;;;-1.00;100.00
17593;BME280;8915;51.760;14.300;2023-02-10T08:49:18;102732.84;;;-0.91;100.00
17593;BME280;8915;51.760;14.300;2023-02-10T08:51:44;102727.31;;;-0.83;100.00
17593;BME280;8915;51.760;14.300;2023-02-10T08:54:10;102720.94;;;-0.74;100.00
17593;BME280;8915;51.760;14.300;2023-02-10T08:56:37;102722.47;;;-0.62;100.00
17593;BME280;8915;51.760;14.300;2023-02-10T08:59:03;102716.94;;;-0.53;100.00
17593;BME280;8915;51.760;14.300;2023-02-10T09:01:29;102714.97;;;-0.42;100.00
17593;BME280;8915;51.760;14.300;2023-02-10T09:03:57;102716.41;;;-0.31;100.00
17593;BME280;8915;51.760;14.300;2023-02-10T09:06:26;102722.06;;;-0.20;100.00
17593;BME280;8915;51.760;14.300;2023-02-10T09:08:53;102713.28;;;-0.09;100.00
17593;BME280;8915;51.760;14.300;2023-02-10T09:11:20;102711.09;;;-0.01;100.00
17593;BME280;8915;51.760;14.300;2023-02-10T09:13:48;102711.63;;;0.10;100.00
17593;BME280;8915;51.760;14.300;2023-02-10T09:16:15;102719.41;;;0.11;100.00
17593;BME280;8915;51.760;14.300;2023-02-10T09:18:41;102723.75;;;0.12;100.00
17593;BME280;8915;51.760;14.300;2023-02-10T09:21:11;102709.13;;;0.11;100.00
17593;BME280;8915;51.760;14.300;2023-02-10T09:23:37;102717.94;;;0.16;100.00
17593;BME280;8915;51.760;14.300;2023-02-10T09:26:04;102717.44;;;0.24;100.00
17593;BME280;8915;51.760;14.300;2023-02-10T09:28:30;102717.03;;;0.32;100.00
17593;BME280;8915;51.760;14.300;2023-02-10T09:30:56;102720.09;;;0.43;100.00
17593;BME280;8915;51.760;14.300;2023-02-10T09:33:23;102712.06;;;0.53;100.00
17593;BME280;8915;51.760;14.300;2023-02-10T09:35:49;102711.78;;;0.65;100.00
17593;BME280;8915;51.760;14.300;2023-02-10T09:38:17;102712.13;;;0.73;100.00
17593;BME280;8915;51.760;14.300;2023-02-10T09:40:50;102713.06;;;0.75;100.00
17593;BME280;8915;51.760;14.300;2023-02-10T09:43:39;102714.94;;;0.78;100.00
17593;BME280;8915;51.760;14.300;2023-02-10T09:46:16;102714.19;;;0.80;100.00
17593;BME280;8915;51.760;14.300;2023-02-10T09:48:57;102711.84;;;0.85;100.00
17593;BME280;8915;51.760;14.300;2023-02-10T09:51:36;102713.06;;;0.93;100.00
17593;BME280;8915;51.760;14.300;2023-02-10T09:54:09;102719.53;;;1.03;100.00
17593;BME280;8915;51.760;14.300;2023-02-10T09:56:37;102723.03;;;1.05;100.00
17593;BME280;8915;51.760;14.300;2023-02-10T09:59:05;102721.47;;;1.08;100.00
17593;BME280;8915;51.760;14.300;2023-02-10T10:01:35;102726.63;;;1.08;100.00
17593;BME280;8915;51.760;14.300;2023-02-10T10:04:07;102723.53;;;1.16;100.00
17593;BME280;8915;51.760;14.300;2023-02-10T10:06:37;102725.78;;;1.27;100.00
17593;BME280;8915;51.760;14.300;2023-02-10T10:09:18;102722.84;;;1.38;100.00
17593;BME280;8915;51.760;14.300;2023-02-10T10:11:49;102731.09;;;1.50;100.00
17593;BME280;8915;51.760;14.300;2023-02-10T10:14:18;102726.34;;;1.59;100.00
17593;BME280;8915;51.760;14.300;2023-02-10T10:16:59;102736.56;;;1.77;100.00
17593;BME280;8915;51.760;14.300;2023-02-10T10:19:38;102734.81;;;1.96;100.00
17593;BME280;8915;51.760;14.300;2023-02-10T10:22:25;102735.56;;;2.14;100.00
17593;BME280;8915;51.760;14.300;2023-02-10T10:28:08;102758.59;;;2.31;100.00
17593;BME280;8915;51.760;14.300;2023-02-10T10:30:44;102761.19;;;2.32;100.00
17593;BME280;8915;51.760;14.300;2023-02-10T10:33:20;102761.28;;;2.34;100.00
17593;BME280;8915;51.760;14.300;2023-02-10T10:35:48;102763.19;;;2.38;100.00
17593;BME280;8915;51.760;14.300;2023-02-10T10:38:16;102768.41;;;2.39;100.00
17593;BME280;8915;51.760;14.300;2023-02-10T10:40:45;102764.50;;;2.49;100.00
17593;BME280;8915;51.760;14.300;2023-02-10T10:43:17;102768.94;;;2.53;100.00
17593;BME280;8915;51.760;14.300;2023-02-10T10:45:49;102758.03;;;2.59;100.00
17593;BME280;8915;51.760;14.300;2023-02-10T10:48:18;102760.03;;;2.66;100.00
17593;BME280;8915;51.760;14.300;2023-02-10T10:50:49;102755.03;;;2.69;100.00
17593;BME280;8915;51.760;14.300;2023-02-10T10:53:18;102751.59;;;2.70;100.00
17593;BME280;8915;51.760;14.300;2023-02-10T10:55:49;102748.22;;;2.71;100.00
17593;BME280;8915;51.760;14.300;2023-02-10T10:58:23;102757.06;;;2.78;100.00
17593;BME280;8915;51.760;14.300;2023-02-10T11:00:52;102758.63;;;2.74;100.00
17593;BME280;8915;51.760;14.300;2023-02-10T11:03:20;102762.19;;;2.76;100.00
17593;BME280;8915;51.760;14.300;2023-02-10T11:05:58;102775.78;;;2.74;100.00
17593;BME280;8915;51.760;14.300;2023-02-10T11:08:28;102767.00;;;2.69;100.00
17593;BME280;8915;51.760;14.300;2023-02-10T11:10:57;102772.78;;;2.63;100.00
17593;BME280;8915;51.760;14.300;2023-02-10T11:13:29;102767.63;;;2.63;100.00
17593;BME280;8915;51.760;14.300;2023-02-10T11:15:59;102752.47;;;2.71;100.00
17593;BME280;8915;51.760;14.300;2023-02-10T11:18:28;102749.28;;;2.76;100.00
17593;BME280;8915;51.760;14.300;2023-02-10T11:20:57;102747.53;;;2.75;100.00
17593;BME280;8915;51.760;14.300;2023-02-10T11:23:24;102753.69;;;2.79;100.00
17593;BME280;8915;51.760;14.300;2023-02-10T11:25:57;102758.19;;;2.84;100.00
17593;BME280;8915;51.760;14.300;2023-02-10T11:28:26;102752.53;;;2.93;100.00
17593;BME280;8915;51.760;14.300;2023-02-10T11:30:57;102759.13;;;2.87;100.00
17593;BME280;8915;51.760;14.300;2023-02-10T11:33:27;102758.75;;;2.77;100.00
17593;BME280;8915;51.760;14.300;2023-02-10T11:35:59;102751.59;;;2.70;100.00
17593;BME280;8915;51.760;14.300;2023-02-10T11:38:27;102760.97;;;2.68;100.00
17593;BME280;8915;51.760;14.300;2023-02-10T11:40:55;102750.91;;;2.74;100.00
17593;BME280;8915;51.760;14.300;2023-02-10T11:43:29;102747.00;;;2.84;100.00
17593;BME280;8915;51.760;14.300;2023-02-10T11:45:59;102743.63;;;2.85;100.00
17593;BME280;8915;51.760;14.300;2023-02-10T11:48:33;102748.81;;;2.87;100.00
17593;BME280;8915;51.760;14.300;2023-02-10T11:51:04;102747.44;;;2.95;100.00
17593;BME280;8915;51.760;14.300;2023-02-10T11:53:34;102745.69;;;2.94;100.00
17593;BME280;8915;51.760;14.300;2023-02-10T11:56:05;102742.91;;;2.89;100.00
17593;BME280;8915;51.760;14.300;2023-02-10T11:58:49;102746.56;;;2.94;100.00
17593;BME280;8915;51.760;14.300;2023-02-10T12:01:49;102740.56;;;2.95;100.00
17593;BME280;8915;51.760;14.300;2023-02-10T12:07:17;102740.75;;;3.00;100.00
17593;BME280;8915;51.760;14.300;2023-02-10T12:09:52;102749.69;;;3.08;100.00
17593;BME280;8915;51.760;14.300;2023-02-10T12:12:25;102751.66;;;3.15;100.00
17593;BME280;8915;51.760;14.300;2023-02-10T12:15:01;102752.59;;;3.17;100.00
17593;BME280;8915;51.760;14.300;2023-02-10T12:17:40;102746.63;;;3.18;100.00
17593;BME280;8915;51.760;14.300;2023-02-10T12:20:21;102741.47;;;3.18;100.00
17593;BME280;8915;51.760;14.300;2023-02-10T12:23:04;102734.56;;;3.17;100.00
17593;BME280;8915;51.760;14.300;2023-02-10T12:25:39;102733.97;;;3.25;100.00
17593;BME280;8915;51.760;14.300;2023-02-10T12:28:14;102745.41;;;3.31;100.00
17593;BME280;8915;51.760;14.300;2023-02-10T12:30:49;102742.03;;;3.34;100.00
17593;BME280;8915;51.760;14.300;2023-02-10T12:33:35;102746.38;;;3.35;100.00
17593;BME280;8915;51.760;14.300;2023-02-10T12:36:11;102736.66;;;3.28;100.00
17593;BME280;8915;51.760;14.300;2023-02-10T12:38:50;102731.56;;;3.29;100.00
17593;BME280;8915;51.760;14.300;2023-02-10T12:41:25;102717.91;;;3.32;100.00
17593;BME280;8915;51.760;14.300;2023-02-10T12:44:00;102719.72;;;3.34;100.00
17593;BME280;8915;51.760;14.300;2023-02-10T12:46:35;102719.13;;;3.41;100.00
17593;BME280;8915;51.760;14.300;2023-02-10T12:49:14;102718.88;;;3.35;100.00
17593;BME280;8915;51.760;14.300;2023-02-10T12:52:00;102710.22;;;3.33;100.00
17593;BME280;8915;51.760;14.300;2023-02-10T12:54:33;102713.84;;;3.38;100.00
17593;BME280;8915;51.760;14.300;2023-02-10T12:57:05;102708.44;;;3.31;100.00
17593;BME280;8915;51.760;14.300;2023-02-10T12:59:41;102709.19;;;3.28;100.00
17593;BME280;8915;51.760;14.300;2023-02-10T13:02:14;102707.25;;;3.22;100.00
17593;BME280;8915;51.760;14.300;2023-02-10T13:04:44;102706.25;;;3.19;100.00
17593;BME280;8915;51.760;14.300;2023-02-10T13:07:19;102704.28;;;3.12;100.00